sensor_id;sensor_type;location;lat;lon;timestamp;temperature;humidity
1534;DHT22;760;48.822;9.304;2023-04-26T04:05:29;5.40;99.90
1534;DHT22;760;48.822;9.304;2023-04-26T04:07:55;5.30;99.90
1534;DHT22;760;48.822;9.304;2023-04-26T04:10:21;5.30;99.90
1534;DHT22;760;48.822;9.304;2023-04-26T04:12:48;5.20;99.90
1534;DHT22;760;48.822;9.304;2023-04-26T04:15:15;5.20;99.90
1534;DHT22;760;48.822;9.304;2023-04-26T04:17:41;5.20;99.90
1534;DHT22;760;48.822;9.304;2023-04-26T04:20:07;5.10;99.90
1534;DHT22;760;48.822;9.304;2023-04-26T04:22:33;5.10;99.90
1534;DHT22;760;48.822;9.304;2023-04-26T04:24:59;5.10;99.90
1534;DHT22;760;48.822;9.304;2023-04-26T04:27:25;5.10;99.90
1534;DHT22;760;48.822;9.304;2023-04-26T04:29:51;5.10;99.90
1534;DHT22;760;48.822;9.304;2023-04-26T04:32:18;5.00;99.90
1534;DHT22;760;48.822;9.304;2023-04-26T04:34:44;5.00;99.90
1534;DHT22;760;48.822;9.304;2023-04-26T04:37:10;5.10;99.90
1534;DHT22;760;48.822;9.304;2023-04-26T04:39:36;5.20;99.90
1534;DHT22;760;48.822;9.304;2023-04-26T04:42:02;5.20;99.90
1534;DHT22;760;48.822;9.304;2023-04-26T04:44:27;5.30;99.90
1534;DHT22;760;48.822;9.304;2023-04-26T04:46:53;5.40;99.90
1534;DHT22;760;48.822;9.304;2023-04-26T04:49:18;5.50;99.90
1534;DHT22;760;48.822;9.304;2023-04-26T04:51:44;5.60;99.90
1534;DHT22;760;48.822;9.304;2023-04-26T04:54:13;5.80;99.90
1534;DHT22;760;48.822;9.304;2023-04-26T04:56:39;6.10;99.90
1534;DHT22;760;48.822;9.304;2023-04-26T04:59:04;6.40;99.90
1534;DHT22;760;48.822;9.304;2023-04-26T05:01:31;6.80;99.90
1534;DHT22;760;48.822;9.304;2023-04-26T05:04:00;7.30;99.90
1534;DHT22;760;48.822;9.304;2023-04-26T05:06:26;7.70;99.90
1534;DHT22;760;48.822;9.304;2023-04-26T05:08:53;8.00;99.90
1534;DHT22;760;48.822;9.304;2023-04-26T05:11:18;8.30;99.90
1534;DHT22;760;48.822;9.304;2023-04-26T05:13:45;8.40;99.90
1534;DHT22;760;48.822;9.304;2023-04-26T05:16:11;8.50;99.90
1534;DHT22;760;48.822;9.304;2023-04-26T05:18:37;8.50;99.90
1534;DHT22;760;48.822;9.304;2023-04-26T05:21:03;8.40;99.90
1534;DHT22;760;48.822;9.304;2023-04-26T05:23:28;8.40;99.90
1534;DHT22;760;48.822;9.304;2023-04-26T05:25:55;8.40;99.90
1534;DHT22;760;48.822;9.304;2023-04-26T05:28:20;8.50;99.90
1534;DHT22;760;48.822;9.304;2023-04-26T05:30:46;8.60;99.90
1534;DHT22;760;48.822;9.304;2023-04-26T05:33:12;8.70;99.90
1534;DHT22;760;48.822;9.304;2023-04-26T05:35:38;8.80;99.90
1534;DHT22;760;48.822;9.304;2023-04-26T05:38:03;8.90;99.90
1534;DHT22;760;48.822;9.304;2023-04-26T05:40:29;9.20;99.90
1534;DHT22;760;48.822;9.304;2023-04-26T05:42:56;9.50;99.90
1534;DHT22;760;48.822;9.304;2023-04-26T05:45:21;9.90;99.90
1534;DHT22;760;48.822;9.304;2023-04-26T05:47:47;10.20;99.90
1534;DHT22;760;48.822;9.304;2023-04-26T05:50:12;10.50;99.90
1534;DHT22;760;48.822;9.304;2023-04-26T05:52:38;10.80;99.90
1534;DHT22;760;48.822;9.304;2023-04-26T05:55:04;11.00;99.90
1534;DHT22;760;48.822;9.304;2023-04-26T05:57:31;11.30;99.90
1534;DHT22;760;48.822;9.304;2023-04-26T05:59:57;11.60;99.90
1534;DHT22;760;48.822;9.304;2023-04-26T06:02:22;11.80;99.90
1534;DHT22;760;48.822;9.304;2023-04-26T06:04:48;11.90;99.90
1534;DHT22;760;48.822;9.304;2023-04-26T06:07:14;11.70;99.90
1534;DHT22;760;48.822;9.304;2023-04-26T06:09:41;11.60;99.90
1534;DHT22;760;48.822;9.304;2023-04-26T06:12:06;11.40;99.90
1534;DHT22;760;48.822;9.304;2023-04-26T06:14:32;11.30;99.90
1534;DHT22;760;48.822;9.304;2023-04-26T06:16:57;11.40;99.90
1534;DHT22;760;48.822;9.304;2023-04-26T06:19:23;11.60;99.90
1534;DHT22;760;48.822;9.304;2023-04-26T06:21:49;12.00;99.90
1534;DHT22;760;48.822;9.304;2023-04-26T06:24:16;12.50;99.90
1534;DHT22;760;48.822;9.304;2023-04-26T06:26:41;13.00;99.90
1534;DHT22;760;48.822;9.304;2023-04-26T06:29:07;13.20;99.90
1534;DHT22;760;48.822;9.304;2023-04-26T06:31:33;12.80;99.90
1534;DHT22;760;48.822;9.304;2023-04-26T06:33:58;12.50;99.90
1534;DHT22;760;48.822;9.304;2023-04-26T06:36:24;12.30;99.90
1534;DHT22;760;48.822;9.304;2023-04-26T06:38:52;12.30;99.90
1534;DHT22;760;48.822;9.304;2023-04-26T06:41:18;12.20;99.90
1534;DHT22;760;48.822;9.304;2023-04-26T06:43:43;12.10;99.90
1534;DHT22;760;48.822;9.304;2023-04-26T06:46:09;12.00;99.90
1534;DHT22;760;48.822;9.304;2023-04-26T06:48:34;11.90;99.90
1534;DHT22;760;48.822;9.304;2023-04-26T06:51:07;11.70;99.90
1534;DHT22;760;48.822;9.304;2023-04-26T06:53:34;11.80;99.90
1534;DHT22;760;48.822;9.304;2023-04-26T06:56:00;11.80;99.90
1534;DHT22;760;48.822;9.304;2023-04-26T06:58:26;11.80;99.90
1534;DHT22;760;48.822;9.304;2023-04-26T07:00:51;12.00;99.90
1534;DHT22;760;48.822;9.304;2023-04-26T07:03:17;12.20;99.90
1534;DHT22;760;48.822;9.304;2023-04-26T07:05:42;12.20;98.60
1534;DHT22;760;48.822;9.304;2023-04-26T07:08:08;12.50;97.10
1534;DHT22;760;48.822;9.304;2023-04-26T07:10:34;12.40;98.10
1534;DHT22;760;48.822;9.304;2023-04-26T07:13:00;12.80;98.50
1534;DHT22;760;48.822;9.304;2023-04-26T07:15:25;12.90;95.70
1534;DHT22;760;48.822;9.304;2023-04-26T07:17:51;13.30;96.40
1534;DHT22;760;48.822;9.304;2023-04-26T07:20:16;13.60;94.30
1534;DHT22;760;48.822;9.304;2023-04-26T07:22:44;13.80;93.90
1534;DHT22;760;48.822;9.304;2023-04-26T07:25:10;14.10;93.30
1534;DHT22;760;48.822;9.304;2023-04-26T07:27:36;14.30;93.00
1534;DHT22;760;48.822;9.304;2023-04-26T07:30:02;14.70;93.80
1534;DHT22;760;48.822;9.304;2023-04-26T07:32:27;15.40;92.90
1534;DHT22;760;48.822;9.304;2023-04-26T07:34:53;16.00;93.30
1534;DHT22;760;48.822;9.304;2023-04-26T07:37:18;16.80;92.70
1534;DHT22;760;48.822;9.304;2023-04-26T07:39:44;17.50;90.50
1534;DHT22;760;48.822;9.304;2023-04-26T07:42:10;17.90;91.10
1534;DHT22;760;48.822;9.304;2023-04-26T07:44:35;19.00;91.20
1534;DHT22;760;48.822;9.304;2023-04-26T07:47:01;20.30;85.10
1534;DHT22;760;48.822;9.304;2023-04-26T07:49:27;20.70;77.10
1534;DHT22;760;48.822;9.304;2023-04-26T07:51:52;21.20;77.90
1534;DHT22;760;48.822;9.304;2023-04-26T07:54:19;21.60;77.40
1534;DHT22;760;48.822;9.304;2023-04-26T07:56:45;22.10;75.60
1534;DHT22;760;48.822;9.304;2023-04-26T07:59:10;21.80;69.60
1534;DHT22;760;48.822;9.304;2023-04-26T08:01:36;21.00;65.30
1534;DHT22;760;48.822;9.304;2023-04-26T08:04:02;19.90;70.00
1534;DHT22;760;48.822;9.304;2023-04-26T08:06:29;19.00;73.30
1534;DHT22;760;48.822;9.304;2023-04-26T08:08:54;18.30;76.10
1534;DHT22;760;48.822;9.304;2023-04-26T08:11:20;18.10;81.20
1534;DHT22;760;48.822;9.304;2023-04-26T08:13:46;17.80;82.30
1534;DHT22;760;48.822;9.304;2023-04-26T08:16:11;18.00;83.00
1534;DHT22;760;48.822;9.304;2023-04-26T08:18:37;18.00;80.80
1534;DHT22;760;48.822;9.304;2023-04-26T08:21:03;17.50;79.10
1534;DHT22;760;48.822;9.304;2023-04-26T08:23:32;17.40;81.30
1534;DHT22;760;48.822;9.304;2023-04-26T08:25:59;17.80;82.50
1534;DHT22;760;48.822;9.304;2023-04-26T08:28:24;18.80;81.80
1534;DHT22;760;48.822;9.304;2023-04-26T08:30:50;19.70;77.30
1534;DHT22;760;48.822;9.304;2023-04-26T08:33:17;20.50;81.20
1534;DHT22;760;48.822;9.304;2023-04-26T08:35:43;21.10;72.20
1534;DHT22;760;48.822;9.304;2023-04-26T08:38:08;21.10;74.00
1534;DHT22;760;48.822;9.304;2023-04-26T08:40:35;20.80;77.60
1534;DHT22;760;48.822;9.304;2023-04-26T08:43:01;20.60;72.50
1534;DHT22;760;48.822;9.304;2023-04-26T08:45:26;20.10;71.90
1534;DHT22;760;48.822;9.304;2023-04-26T08:47:54;19.20;74.90
1534;DHT22;760;48.822;9.304;2023-04-26T08:50:22;18.50;76.20
1534;DHT22;760;48.822;9.304;2023-04-26T08:52:49;18.60;77.20
1534;DHT22;760;48.822;9.304;2023-04-26T08:55:16;18.60;77.40
1534;DHT22;760;48.822;9.304;2023-04-26T08:57:46;18.30;76.60
1534;DHT22;760;48.822;9.304;2023-04-26T09:00:13;17.80;76.90
1534;DHT22;760;48.822;9.304;2023-04-26T09:02:42;17.10;77.00
1534;DHT22;760;48.822;9.304;2023-04-26T09:05:10;16.70;79.60
1534;DHT22;760;48.822;9.304;2023-04-26T09:07:46;16.50;77.10
1534;DHT22;760;48.822;9.304;2023-04-26T09:10:17;16.30;79.00
1534;DHT22;760;48.822;9.304;2023-04-26T09:12:44;16.50;80.00
1534;DHT22;760;48.822;9.304;2023-04-26T09:15:10;16.60;78.80
1534;DHT22;760;48.822;9.304;2023-04-26T09:17:37;17.10;80.00
1534;DHT22;760;48.822;9.304;2023-04-26T09:20:23;17.10;76.30
1534;DHT22;760;48.822;9.304;2023-04-26T09:22:52;16.90;77.00
1534;DHT22;760;48.822;9.304;2023-04-26T09:25:28;16.90;75.80
1534;DHT22;760;48.822;9.304;2023-04-26T09:27:54;16.80;76.60
1534;DHT22;760;48.822;9.304;2023-04-26T09:30:20;16.60;79.60
1534;DHT22;760;48.822;9.304;2023-04-26T09:33:00;16.50;81.20
1534;DHT22;760;48.822;9.304;2023-04-26T09:38:07;16.10;78.90
1534;DHT22;760;48.822;9.304;2023-04-26T09:40:35;15.90;81.40
1534;DHT22;760;48.822;9.304;2023-04-26T09:43:02;15.80;82.30
1534;DHT22;760;48.822;9.304;2023-04-26T09:45:29;15.80;80.40
1534;DHT22;760;48.822;9.304;2023-04-26T09:48:24;15.80;78.50
1534;DHT22;760;48.822;9.304;2023-04-26T09:50:52;16.30;85.40
1534;DHT22;760;48.822;9.304;2023-04-26T09:53:40;17.30;80.60
1534;DHT22;760;48.822;9.304;2023-04-26T09:56:11;17.90;76.10
1534;DHT22;760;48.822;9.304;2023-04-26T09:58:39;18.40;77.80
1534;DHT22;760;48.822;9.304;2023-04-26T10:01:06;18.60;79.20
1534;DHT22;760;48.822;9.304;2023-04-26T10:03:36;18.70;76.00
1534;DHT22;760;48.822;9.304;2023-04-26T10:06:02;18.80;77.10
1534;DHT22;760;48.822;9.304;2023-04-26T10:08:29;18.70;76.10
1534;DHT22;760;48.822;9.304;2023-04-26T10:10:55;18.70;78.20
1534;DHT22;760;48.822;9.304;2023-04-26T10:13:21;18.70;75.90
1534;DHT22;760;48.822;9.304;2023-04-26T10:15:47;18.40;76.90
1534;DHT22;760;48.822;9.304;2023-04-26T10:18:13;18.20;78.20
1534;DHT22;760;48.822;9.304;2023-04-26T10:20:40;17.70;73.30
1534;DHT22;760;48.822;9.304;2023-04-26T10:23:18;17.30;77.80
1534;DHT22;760;48.822;9.304;2023-04-26T10:25:47;17.20;79.70
1534;DHT22;760;48.822;9.304;2023-04-26T10:28:13;17.20;79.70
1534;DHT22;760;48.822;9.304;2023-04-26T10:30:54;16.80;75.00
1534;DHT22;760;48.822;9.304;2023-04-26T10:33:20;16.60;75.10
1534;DHT22;760;48.822;9.304;2023-04-26T10:36:07;16.60;78.20
1534;DHT22;760;48.822;9.304;2023-04-26T10:38:34;16.90;75.10
1534;DHT22;760;48.822;9.304;2023-04-26T10:41:35;17.10;73.50
1534;DHT22;760;48.822;9.304;2023-04-26T10:46:57;17.40;79.70
1534;DHT22;760;48.822;9.304;2023-04-26T10:49:23;18.10;78.80
1534;DHT22;760;48.822;9.304;2023-04-26T10:52:08;18.90;75.90
1534;DHT22;760;48.822;9.304;2023-04-26T10:54:54;19.50;72.00
1534;DHT22;760;48.822;9.304;2023-04-26T10:57:22;19.30;69.30
1534;DHT22;760;48.822;9.304;2023-04-26T11:08:16;18.80;67.60
1534;DHT22;760;48.822;9.304;2023-04-26T11:10:44;18.70;68.50
1534;DHT22;760;48.822;9.304;2023-04-26T11:13:12;18.00;69.60
1534;DHT22;760;48.822;9.304;2023-04-26T11:15:38;17.50;73.70
1534;DHT22;760;48.822;9.304;2023-04-26T11:18:04;17.30;74.40
1534;DHT22;760;48.822;9.304;2023-04-26T11:20:31;16.80;75.30
1534;DHT22;760;48.822;9.304;2023-04-26T11:22:57;16.70;78.90
1534;DHT22;760;48.822;9.304;2023-04-26T11:25:25;16.70;78.10
1534;DHT22;760;48.822;9.304;2023-04-26T11:27:56;16.80;76.40
1534;DHT22;760;48.822;9.304;2023-04-26T11:30:22;16.50;77.10
1534;DHT22;760;48.822;9.304;2023-04-26T11:32:47;16.40;75.60
1534;DHT22;760;48.822;9.304;2023-04-26T11:35:14;16.40;76.70
1534;DHT22;760;48.822;9.304;2023-04-26T11:37:40;16.50;77.10
1534;DHT22;760;48.822;9.304;2023-04-26T11:40:09;16.80;77.20
1534;DHT22;760;48.822;9.304;2023-04-26T11:42:35;16.70;76.30
1534;DHT22;760;48.822;9.304;2023-04-26T11:45:02;16.70;76.10
1534;DHT22;760;48.822;9.304;2023-04-26T11:47:32;16.80;76.30
1534;DHT22;760;48.822;9.304;2023-04-26T11:49:58;16.80;77.60
1534;DHT22;760;48.822;9.304;2023-04-26T11:52:25;16.60;76.50
1534;DHT22;760;48.822;9.304;2023-04-26T11:55:03;16.70;76.40
1534;DHT22;760;48.822;9.304;2023-04-26T11:57:30;16.80;76.10
1534;DHT22;760;48.822;9.304;2023-04-26T12:00:09;16.70;71.80
1534;DHT22;760;48.822;9.304;2023-04-26T12:02:36;16.60;70.60
1534;DHT22;760;48.822;9.304;2023-04-26T12:05:01;16.50;71.30
1534;DHT22;760;48.822;9.304;2023-04-26T12:07:37;16.30;71.70
1534;DHT22;760;48.822;9.304;2023-04-26T12:10:16;16.20;75.10
1534;DHT22;760;48.822;9.304;2023-04-26T12:12:51;16.40;76.00
1534;DHT22;760;48.822;9.304;2023-04-26T12:15:18;16.20;72.80
1534;DHT22;760;48.822;9.304;2023-04-26T12:18:04;16.10;73.70
1534;DHT22;760;48.822;9.304;2023-04-26T12:20:35;15.70;72.00
1534;DHT22;760;48.822;9.304;2023-04-26T12:25:28;15.40;77.90
1534;DHT22;760;48.822;9.304;2023-04-26T12:27:55;15.30;76.70
1534;DHT22;760;48.822;9.304;2023-04-26T12:30:20;15.40;75.00
1534;DHT22;760;48.822;9.304;2023-04-26T12:32:46;15.30;72.00
1534;DHT22;760;48.822;9.304;2023-04-26T12:35:12;15.30;72.20
1534;DHT22;760;48.822;9.304;2023-04-26T12:37:37;15.10;73.20
1534;DHT22;760;48.822;9.304;2023-04-26T12:40:04;15.10;74.00
1534;DHT22;760;48.822;9.304;2023-04-26T12:42:31;15.20;74.80
1534;DHT22;760;48.822;9.304;2023-04-26T12:44:56;15.20;74.40
1534;DHT22;760;48.822;9.304;2023-04-26T12:47:22;15.30;74.90
1534;DHT22;760;48.822;9.304;2023-04-26T12:49:48;15.30;72.90
1534;DHT22;760;48.822;9.304;2023-04-26T12:52:13;15.20;72.40
1534;DHT22;760;48.822;9.304;2023-04-26T12:54:39;15.30;76.00
1534;DHT22;760;48.822;9.304;2023-04-26T12:57:05;15.40;77.00
1534;DHT22;760;48.822;9.304;2023-04-26T12:59:30;15.60;75.20
1534;DHT22;760;48.822;9.304;2023-04-26T13:01:56;15.50;71.90
1534;DHT22;760;48.822;9.304;2023-04-26T13:04:22;15.50;74.00
1534;DHT22;760;48.822;9.304;2023-04-26T13:06:47;15.60;78.20
1534;DHT22;760;48.822;9.304;2023-04-26T13:09:13;15.60;78.60
1534;DHT22;760;48.822;9.304;2023-04-26T13:11:39;15.80;78.30
1534;DHT22;760;48.822;9.304;2023-04-26T13:14:05;15.80;76.20
1534;DHT22;760;48.822;9.304;2023-04-26T13:16:33;15.70;71.20
1534;DHT22;760;48.822;9.304;2023-04-26T13:18:59;15.50;76.30
1534;DHT22;760;48.822;9.304;2023-04-26T13:21:25;15.30;74.10
1534;DHT22;760;48.822;9.304;2023-04-26T13:23:50;15.10;76.50
1534;DHT22;760;48.822;9.304;2023-04-26T13:26:16;14.90;74.40
1534;DHT22;760;48.822;9.304;2023-04-26T13:28:42;14.80;74.30
1534;DHT22;760;48.822;9.304;2023-04-26T13:31:08;14.70;74.30
1534;DHT22;760;48.822;9.304;2023-04-26T13:33:34;14.80;77.70
1534;DHT22;760;48.822;9.304;2023-04-26T13:35:59;14.90;76.00
1534;DHT22;760;48.822;9.304;2023-04-26T13:38:25;15.00;75.70
1534;DHT22;760;48.822;9.304;2023-04-26T13:40:51;15.00;76.00
1534;DHT22;760;48.822;9.304;2023-04-26T13:43:16;14.90;78.70
1534;DHT22;760;48.822;9.304;2023-04-26T13:45:42;14.90;79.50
1534;DHT22;760;48.822;9.304;2023-04-26T13:48:08;15.00;78.50
1534;DHT22;760;48.822;9.304;2023-04-26T13:50:36;15.20;79.90
1534;DHT22;760;48.822;9.304;2023-04-26T13:53:01;15.40;80.50
1534;DHT22;760;48.822;9.304;2023-04-26T13:55:27;15.70;78.80
1534;DHT22;760;48.822;9.304;2023-04-26T13:57:55;15.70;74.30
1534;DHT22;760;48.822;9.304;2023-04-26T14:00:21;15.40;73.90
1534;DHT22;760;48.822;9.304;2023-04-26T14:02:47;15.20;72.50
1534;DHT22;760;48.822;9.304;2023-04-26T14:05:13;15.00;73.90
1534;DHT22;760;48.822;9.304;2023-04-26T14:07:39;14.80;73.20
1534;DHT22;760;48.822;9.304;2023-04-26T14:10:06;14.70;74.40
1534;DHT22;760;48.822;9.304;2023-04-26T14:12:31;14.60;75.60
1534;DHT22;760;48.822;9.304;2023-04-26T14:14:57;14.50;75.50
1534;DHT22;760;48.822;9.304;2023-04-26T14:17:23;14.60;78.40
1534;DHT22;760;48.822;9.304;2023-04-26T14:19:50;14.60;79.20
1534;DHT22;760;48.822;9.304;2023-04-26T14:22:15;14.70;78.70
1534;DHT22;760;48.822;9.304;2023-04-26T14:24:41;14.80;79.80
1534;DHT22;760;48.822;9.304;2023-04-26T14:27:07;14.90;78.40
1534;DHT22;760;48.822;9.304;2023-04-26T14:29:33;15.00;77.20
1534;DHT22;760;48.822;9.304;2023-04-26T14:31:58;14.90;76.40
1534;DHT22;760;48.822;9.304;2023-04-26T14:34:24;14.80;77.00
1534;DHT22;760;48.822;9.304;2023-04-26T14:36:50;14.80;78.90
1534;DHT22;760;48.822;9.304;2023-04-26T14:39:16;14.80;77.90
1534;DHT22;760;48.822;9.304;2023-04-26T14:41:41;15.00;77.80
1534;DHT22;760;48.822;9.304;2023-04-26T14:44:07;15.00;76.80
1534;DHT22;760;48.822;9.304;2023-04-26T14:46:34;15.10;78.20
1534;DHT22;760;48.822;9.304;2023-04-26T14:48:59;15.20;78.00
1534;DHT22;760;48.822;9.304;2023-04-26T14:51:25;15.30;77.30
1534;DHT22;760;48.822;9.304;2023-04-26T14:53:51;15.20;74.60
1534;DHT22;760;48.822;9.304;2023-04-26T14:56:17;15.20;75.70
1534;DHT22;760;48.822;9.304;2023-04-26T14:58:42;15.20;74.50
1534;DHT22;760;48.822;9.304;2023-04-26T15:01:08;15.10;76.90
1534;DHT22;760;48.822;9.304;2023-04-26T15:03:34;15.10;77.10
1534;DHT22;760;48.822;9.304;2023-04-26T15:06:00;15.10;76.70
1534;DHT22;760;48.822;9.304;2023-04-26T15:08:25;15.20;74.90
1534;DHT22;760;48.822;9.304;2023-04-26T15:10:51;15.20;74.10
1534;DHT22;760;48.822;9.304;2023-04-26T15:13:17;15.30;77.80
1534;DHT22;760;48.822;9.304;2023-04-26T15:15:42;15.40;78.70
1534;DHT22;760;48.822;9.304;2023-04-26T15:18:08;15.50;76.80
1534;DHT22;760;48.822;9.304;2023-04-26T15:20:37;15.40;74.10
1534;DHT22;760;48.822;9.304;2023-04-26T15:23:03;15.40;76.30
1534;DHT22;760;48.822;9.304;2023-04-26T15:25:29;15.40;76.50
1534;DHT22;760;48.822;9.304;2023-04-26T15:27:54;15.50;77.50
1534;DHT22;760;48.822;9.304;2023-04-26T15:30:21;15.50;79.90
1534;DHT22;760;48.822;9.304;2023-04-26T15:32:47;15.40;76.40
1534;DHT22;760;48.822;9.304;2023-04-26T15:35:14;15.30;74.40
1534;DHT22;760;48.822;9.304;2023-04-26T15:37:40;15.20;74.40
1534;DHT22;760;48.822;9.304;2023-04-26T15:40:06;15.10;76.10
1534;DHT22;760;48.822;9.304;2023-04-26T15:42:35;15.10;79.30
1534;DHT22;760;48.822;9.304;2023-04-26T15:45:01;15.00;80.40
1534;DHT22;760;48.822;9.304;2023-04-26T15:47:26;15.00;78.20
1534;DHT22;760;48.822;9.304;2023-04-26T15:49:52;14.90;76.40
1534;DHT22;760;48.822;9.304;2023-04-26T15:52:19;14.70;77.30
1534;DHT22;760;48.822;9.304;2023-04-26T15:54:45;14.60;77.20
1534;DHT22;760;48.822;9.304;2023-04-26T15:57:11;14.50;76.60
1534;DHT22;760;48.822;9.304;2023-04-26T15:59:37;14.40;76.70
1534;DHT22;760;48.822;9.304;2023-04-26T16:02:02;14.30;76.70
1534;DHT22;760;48.822;9.304;2023-04-26T16:04:29;14.00;78.40
1534;DHT22;760;48.822;9.304;2023-04-26T16:06:55;13.90;78.40
1534;DHT22;760;48.822;9.304;2023-04-26T16:09:21;13.90;78.00
1534;DHT22;760;48.822;9.304;2023-04-26T16:11:47;13.90;78.00
1534;DHT22;760;48.822;9.304;2023-04-26T16:14:13;13.80;78.60
1534;DHT22;760;48.822;9.304;2023-04-26T16:16:39;13.80;78.50
1534;DHT22;760;48.822;9.304;2023-04-26T16:19:05;13.70;80.50
1534;DHT22;760;48.822;9.304;2023-04-26T16:21:32;13.70;79.40
1534;DHT22;760;48.822;9.304;2023-04-26T16:23:58;13.70;79.40
1534;DHT22;760;48.822;9.304;2023-04-26T16:26:25;13.70;81.10
1534;DHT22;760;48.822;9.304;2023-04-26T16:28:52;13.70;81.60
1534;DHT22;760;48.822;9.304;2023-04-26T16:31:17;13.70;80.30
1534;DHT22;760;48.822;9.304;2023-04-26T16:33:43;13.70;81.00
1534;DHT22;760;48.822;9.304;2023-04-26T16:36:09;13.70;79.60
1534;DHT22;760;48.822;9.304;2023-04-26T16:38:35;13.60;80.40
1534;DHT22;760;48.822;9.304;2023-04-26T16:41:00;13.50;80.70
1534;DHT22;760;48.822;9.304;2023-04-26T16:43:30;13.40;81.00
1534;DHT22;760;48.822;9.304;2023-04-26T16:45:58;13.40;81.80
1534;DHT22;760;48.822;9.304;2023-04-26T16:48:24;13.20;82.20
1534;DHT22;760;48.822;9.304;2023-04-26T16:50:50;13.10;82.60
1534;DHT22;760;48.822;9.304;2023-04-26T16:53:16;13.00;81.50
1534;DHT22;760;48.822;9.304;2023-04-26T16:55:42;12.90;82.10
1534;DHT22;760;48.822;9.304;2023-04-26T16:58:08;12.90;82.90
1534;DHT22;760;48.822;9.304;2023-04-26T17:00:33;12.80;82.90
1534;DHT22;760;48.822;9.304;2023-04-26T17:02:59;12.80;82.50
1534;DHT22;760;48.822;9.304;2023-04-26T17:05:26;12.70;83.40
1534;DHT22;760;48.822;9.304;2023-04-26T17:07:52;12.80;83.90
1534;DHT22;760;48.822;9.304;2023-04-26T17:10:18;12.80;83.60
1534;DHT22;760;48.822;9.304;2023-04-26T17:12:44;12.80;84.20
1534;DHT22;760;48.822;9.304;2023-04-26T17:15:10;12.80;84.60
1534;DHT22;760;48.822;9.304;2023-04-26T17:17:36;12.90;85.50
1534;DHT22;760;48.822;9.304;2023-04-26T17:20:02;12.80;85.80
1534;DHT22;760;48.822;9.304;2023-04-26T17:22:30;12.70;83.70
1534;DHT22;760;48.822;9.304;2023-04-26T17:24:56;12.60;82.70
1534;DHT22;760;48.822;9.304;2023-04-26T17:27:21;12.50;83.20
1534;DHT22;760;48.822;9.304;2023-04-26T17:29:49;12.50;84.30
1534;DHT22;760;48.822;9.304;2023-04-26T17:32:14;12.50;83.30
1534;DHT22;760;48.822;9.304;2023-04-26T17:34:40;12.50;83.90
1534;DHT22;760;48.822;9.304;2023-04-26T17:37:06;12.40;84.00
1534;DHT22;760;48.822;9.304;2023-04-26T17:39:31;12.40;83.30
1534;DHT22;760;48.822;9.304;2023-04-26T17:41:57;12.30;84.30
1534;DHT22;760;48.822;9.304;2023-04-26T17:44:23;12.20;84.30
1534;DHT22;760;48.822;9.304;2023-04-26T17:46:48;12.20;83.80
1534;DHT22;760;48.822;9.304;2023-04-26T17:49:14;12.10;83.80
1534;DHT22;760;48.822;9.304;2023-04-26T17:51:40;12.10;84.10
1534;DHT22;760;48.822;9.304;2023-04-26T17:54:05;12.10;85.40
1534;DHT22;760;48.822;9.304;2023-04-26T17:56:32;12.10;84.50
1534;DHT22;760;48.822;9.304;2023-04-26T17:58:58;12.10;84.50
1534;DHT22;760;48.822;9.304;2023-04-26T18:01:23;12.00;84.50
1534;DHT22;760;48.822;9.304;2023-04-26T18:03:49;12.00;84.60
1534;DHT22;760;48.822;9.304;2023-04-26T18:06:14;12.00;83.70
1534;DHT22;760;48.822;9.304;2023-04-26T18:08:42;11.90;83.80
1534;DHT22;760;48.822;9.304;2023-04-26T18:11:08;11.90;84.00
1534;DHT22;760;48.822;9.304;2023-04-26T18:13:33;11.80;84.60
1534;DHT22;760;48.822;9.304;2023-04-26T18:15:59;11.80;84.10
1534;DHT22;760;48.822;9.304;2023-04-26T18:18:25;11.70;85.00
1534;DHT22;760;48.822;9.304;2023-04-26T18:20:50;11.70;85.20
1534;DHT22;760;48.822;9.304;2023-04-26T18:23:16;11.60;85.10
1534;DHT22;760;48.822;9.304;2023-04-26T18:25:41;11.50;85.60
1534;DHT22;760;48.822;9.304;2023-04-26T18:28:07;11.50;86.50
1534;DHT22;760;48.822;9.304;2023-04-26T18:30:33;11.40;85.90
1534;DHT22;760;48.822;9.304;2023-04-26T18:32:58;11.30;86.80
1534;DHT22;760;48.822;9.304;2023-04-26T18:35:24;11.30;87.10
1534;DHT22;760;48.822;9.304;2023-04-26T18:37:50;11.20;87.20
1534;DHT22;760;48.822;9.304;2023-04-26T18:40:15;11.10;87.80
1534;DHT22;760;48.822;9.304;2023-04-26T18:42:41;11.10;87.90
1534;DHT22;760;48.822;9.304;2023-04-26T18:45:09;11.00;87.80
1534;DHT22;760;48.822;9.304;2023-04-26T18:47:35;11.00;87.90
1534;DHT22;760;48.822;9.304;2023-04-26T18:50:00;10.90;87.80
1534;DHT22;760;48.822;9.304;2023-04-26T18:52:27;10.90;88.00
1534;DHT22;760;48.822;9.304;2023-04-26T18:54:52;10.90;87.80
1534;DHT22;760;48.822;9.304;2023-04-26T18:57:18;10.80;89.00
1534;DHT22;760;48.822;9.304;2023-04-26T18:59:47;10.80;89.00
1534;DHT22;760;48.822;9.304;2023-04-26T19:02:13;10.80;89.40
1534;DHT22;760;48.822;9.304;2023-04-26T19:04:38;10.70;89.50
1534;DHT22;760;48.822;9.304;2023-04-26T19:07:04;10.70;90.30
1534;DHT22;760;48.822;9.304;2023-04-26T19:09:30;10.70;90.90
1534;DHT22;760;48.822;9.304;2023-04-26T19:11:58;10.60;90.40
1534;DHT22;760;48.822;9.304;2023-04-26T19:14:23;10.60;90.50
1534;DHT22;760;48.822;9.304;2023-04-26T19:16:49;10.60;90.50
1534;DHT22;760;48.822;9.304;2023-04-26T19:19:15;10.60;90.40
1534;DHT22;760;48.822;9.304;2023-04-26T19:21:41;10.60;90.50
1534;DHT22;760;48.822;9.304;2023-04-26T19:24:07;10.60;90.40
1534;DHT22;760;48.822;9.304;2023-04-26T19:26:33;10.60;90.50
1534;DHT22;760;48.822;9.304;2023-04-26T19:28:58;10.60;90.50
1534;DHT22;760;48.822;9.304;2023-04-26T19:31:24;10.50;90.60
1534;DHT22;760;48.822;9.304;2023-04-26T19:33:50;10.50;90.60
1534;DHT22;760;48.822;9.304;2023-04-26T19:36:15;10.50;90.70
1534;DHT22;760;48.822;9.304;2023-04-26T19:38:41;10.60;90.90
1534;DHT22;760;48.822;9.304;2023-04-26T19:41:06;10.60;91.00
1534;DHT22;760;48.822;9.304;2023-04-26T19:43:32;10.60;91.10
1534;DHT22;760;48.822;9.304;2023-04-26T19:45:58;10.60;91.20
1534;DHT22;760;48.822;9.304;2023-04-26T19:48:23;10.60;91.20
1534;DHT22;760;48.822;9.304;2023-04-26T19:50:50;10.60;91.30
1534;DHT22;760;48.822;9.304;2023-04-26T19:53:16;10.60;91.60
1534;DHT22;760;48.822;9.304;2023-04-26T19:55:41;10.60;91.70
1534;DHT22;760;48.822;9.304;2023-04-26T19:58:07;10.70;92.10
1534;DHT22;760;48.822;9.304;2023-04-26T20:00:34;10.70;91.90
1534;DHT22;760;48.822;9.304;2023-04-26T20:03:01;10.70;92.10
1534;DHT22;760;48.822;9.304;2023-04-26T20:05:27;10.70;92.20
1534;DHT22;760;48.822;9.304;2023-04-26T20:07:53;10.80;92.10
1534;DHT22;760;48.822;9.304;2023-04-26T20:10:19;10.80;91.90
1534;DHT22;760;48.822;9.304;2023-04-26T20:12:47;10.80;91.80
1534;DHT22;760;48.822;9.304;2023-04-26T20:15:12;10.80;92.00
1534;DHT22;760;48.822;9.304;2023-04-26T20:17:40;10.80;91.90
1534;DHT22;760;48.822;9.304;2023-04-26T20:20:07;10.80;91.90
1534;DHT22;760;48.822;9.304;2023-04-26T20:22:33;10.80;91.90
1534;DHT22;760;48.822;9.304;2023-04-26T20:24:58;10.80;91.50
1534;DHT22;760;48.822;9.304;2023-04-26T20:27:24;10.80;91.40
1534;DHT22;760;48.822;9.304;2023-04-26T20:29:50;10.80;91.20
1534;DHT22;760;48.822;9.304;2023-04-26T20:32:15;10.80;91.40
1534;DHT22;760;48.822;9.304;2023-04-26T20:34:41;10.80;91.70
1534;DHT22;760;48.822;9.304;2023-04-26T20:37:07;10.80;92.10